sensor_id;sensor_type;location;lat;lon;timestamp;pressure;altitude;pressure_sealevel;temperature
77385;BMP280;66444;49.680;18.538;2023-12-20T00:02:37;96854.4207089379;;;11.204127962701023
77385;BMP280;66444;49.680;18.538;2023-12-20T00:07:43;96849.09730558544;;;11.204127962701023
77385;BMP280;66444;49.680;18.538;2023-12-20T00:12:50;96846.02584012692;;;11.18378238575533
77385;BMP280;66444;49.680;18.538;2023-12-20T00:18:10;96843.77391201227;;;11.204127962701023
77385;BMP280;66444;49.680;18.538;2023-12-20T00:23:17;96840.65084910957;;;11.148177402000874
77385;BMP280;66444;49.680;18.538;2023-12-20T00:28:23;96836.75915460082;;;11.087139623425902
77385;BMP280;66444;49.680;18.538;2023-12-20T00:33:30;96830.50918638351;;;10.975234852405265
77385;BMP280;66444;49.680;18.538;2023-12-20T00:38:37;96828.15101078733;;;10.92436811607331
77385;BMP280;66444;49.680;18.538;2023-12-20T00:43:43;96828.04056768138;;;10.853153707319871
77385;BMP280;66444;49.680;18.538;2023-12-20T00:48:50;96818.11249493978;;;10.822632897179574
77385;BMP280;66444;49.680;18.538;2023-12-20T00:53:57;96799.49242031637;;;10.822632897179574
77385;BMP280;66444;49.680;18.538;2023-12-20T00:59:04;96792.93875414948;;;10.761590648256242
77385;BMP280;66444;49.680;18.538;2023-12-20T01:04:21;96776.10328026801;;;10.685286658396944
77385;BMP280;66444;49.680;18.538;2023-12-20T01:09:27;96760.09239960216;;;10.64967768159695
77385;BMP280;66444;49.680;18.538;2023-12-20T01:14:34;96768.42617806396;;;10.634416604228317
77385;BMP280;66444;49.680;18.538;2023-12-20T01:19:45;96754.55145468329;;;10.507238922221585
77385;BMP280;66444;49.680;18.538;2023-12-20T01:24:52;96758.10066109951;;;10.354620901681482
77385;BMP280;66444;49.680;18.538;2023-12-20T01:30:01;96761.22329413884;;;10.181647478742525
77385;BMP280;66444;49.680;18.538;2023-12-20T01:35:10;96757.32067572302;;;10.120596428820864
77385;BMP280;66444;49.680;18.538;2023-12-20T01:40:19;96751.40129387614;;;9.993404049379752
77385;BMP280;66444;49.680;18.538;2023-12-20T01:45:31;96754.14676132353;;;9.835680446447805
77385;BMP280;66444;49.680;18.538;2023-12-20T01:50:37;96728.72576564948;;;9.632157854596153
77385;BMP280;66444;49.680;18.538;2023-12-20T01:55:45;96725.37468577668;;;9.469333075592294
77385;BMP280;66444;49.680;18.538;2023-12-20T02:00:54;96717.5480855767;;;9.347210579784587
77385;BMP280;66444;49.680;18.538;2023-12-20T02:06:07;96714.32919274803;;;9.255616507679225
77385;BMP280;66444;49.680;18.538;2023-12-20T02:11:20;96694.91657837265;;;9.214907425828278
77385;BMP280;66444;49.680;18.538;2023-12-20T02:16:27;96689.75421032883;;;9.286148074595257
77385;BMP280;66444;49.680;18.538;2023-12-20T02:21:34;96677.66918685396;;;9.504951505316422
77385;BMP280;66444;49.680;18.538;2023-12-20T02:26:41;96671.1534651388;;;9.672863118024543
77385;BMP280;66444;49.680;18.538;2023-12-20T02:31:48;96675.75994525131;;;9.70339182112366
77385;BMP280;66444;49.680;18.538;2023-12-20T02:36:55;96677.00717458977;;;9.764448598679156
77385;BMP280;66444;49.680;18.538;2023-12-20T02:42:02;96652.52552618497;;;9.866208031959832
77385;BMP280;66444;49.680;18.538;2023-12-20T02:47:10;96649.57588730517;;;9.917086875485257
77385;BMP280;66444;49.680;18.538;2023-12-20T02:52:16;96653.58809385309;;;10.049369144532829
77385;BMP280;66444;49.680;18.538;2023-12-20T02:57:29;96655.34892232828;;;10.201997642451897
77385;BMP280;66444;49.680;18.538;2023-12-20T03:02:41;96641.86795134677;;;10.324096668930725
77385;BMP280;66444;49.680;18.538;2023-12-20T03:07:48;96643.50637942008;;;10.405494157271459
77385;BMP280;66444;49.680;18.538;2023-12-20T03:12:54;96623.87525425055;;;10.486890155496075
77385;BMP280;66444;49.680;18.538;2023-12-20T03:18:01;96623.97303116694;;;10.558110431581735
77385;BMP280;66444;49.680;18.538;2023-12-20T03:23:09;96608.06806433595;;;10.593720141798258
77385;BMP280;66444;49.680;18.538;2023-12-20T03:28:15;96600.45144091737;;;10.578458872344346
77385;BMP280;66444;49.680;18.538;2023-12-20T03:33:23;96619.46988558868;;;10.598807219974697
77385;BMP280;66444;49.680;18.538;2023-12-20T03:38:34;96617.93696915598;;;10.588633057801053
77385;BMP280;66444;49.680;18.538;2023-12-20T03:43:41;96632.3079645159;;;10.542849039891735
77385;BMP280;66444;49.680;18.538;2023-12-20T03:48:48;96627.70827536797;;;10.512326099351048
77385;BMP280;66444;49.680;18.538;2023-12-20T03:53:55;96626.07534927818;;;10.430930566787719
77385;BMP280;66444;49.680;18.538;2023-12-20T03:59:03;96636.33791632904;;;10.181647478742525
77385;BMP280;66444;49.680;18.538;2023-12-20T04:04:10;96664.17896175981;;;9.591452218638732
77385;BMP280;66444;49.680;18.538;2023-12-20T04:09:27;96665.22498184939;;;8.965556170791388
77385;BMP280;66444;49.680;18.538;2023-12-20T04:14:33;96663.68391030077;;;8.604226494580507
77385;BMP280;66444;49.680;18.538;2023-12-20T04:19:41;96648.93010791663;;;8.278495725244284
77385;BMP280;66444;49.680;18.538;2023-12-20T04:24:53;96637.39766885946;;;8.044362008245661
77385;BMP280;66444;49.680;18.538;2023-12-20T04:30:00;96652.07066873235;;;7.861118333926425
77385;BMP280;66444;49.680;18.538;2023-12-20T04:35:10;96644.44294399007;;;7.688047937024384
77385;BMP280;66444;49.680;18.538;2023-12-20T04:40:18;96622.90349958112;;;7.545514322444797
77385;BMP280;66444;49.680;18.538;2023-12-20T04:45:25;96597.89296633062;;;7.520061411056668
77385;BMP280;66444;49.680;18.538;2023-12-20T04:50:32;96596.50703801932;;;7.423339020647108
77385;BMP280;66444;49.680;18.538;2023-12-20T04:55:39;96595.599656798;;;7.2247970044147225
77385;BMP280;66444;49.680;18.538;2023-12-20T05:00:44;96592.26813852823;;;6.975334229320287
77385;BMP280;66444;49.680;18.538;2023-12-20T05:05:49;96609.92535602461;;;6.812412220239639
77385;BMP280;66444;49.680;18.538;2023-12-20T05:10:54;96607.30301731857;;;6.69021680187434
77385;BMP280;66444;49.680;18.538;2023-12-20T05:16:05;96597.18918138972;;;6.588384725432843
77385;BMP280;66444;49.680;18.538;2023-12-20T05:21:10;96578.48766841333;;;6.517100886581465
77385;BMP280;66444;49.680;18.538;2023-12-20T05:26:15;96562.20314654683;;;6.496733865933493
77385;BMP280;66444;49.680;18.538;2023-12-20T05:31:20;96557.69058345631;;;6.5018256298266355
77385;BMP280;66444;49.680;18.538;2023-12-20T05:36:26;96552.92543963395;;;6.68003369900398
77385;BMP280;66444;49.680;18.538;2023-12-20T05:41:31;96556.58251976549;;;7.474245803849771
77385;BMP280;66444;49.680;18.538;2023-12-20T05:46:36;96539.35978751586;;;7.850937908608467
77385;BMP280;66444;49.680;18.538;2023-12-20T05:51:42;96554.20446948269;;;8.054541991185397
77385;BMP280;66444;49.680;18.538;2023-12-20T05:56:47;96581.10843058849;;;8.074901887215674
77385;BMP280;66444;49.680;18.538;2023-12-20T06:01:52;96587.68635323997;;;7.820396492956206
77385;BMP280;66444;49.680;18.538;2023-12-20T06:06:57;96611.80120118252;;;7.209524174919352
77385;BMP280;66444;49.680;18.538;2023-12-20T06:12:02;96631.08077436956;;;6.69021680187434
77385;BMP280;66444;49.680;18.538;2023-12-20T06:17:12;96616.12784374847;;;6.3643459616228935
77385;BMP280;66444;49.680;18.538;2023-12-20T06:22:17;96639.42473751496;;;6.099558348488062
77385;BMP280;66444;49.680;18.538;2023-12-20T06:27:22;96652.71446202554;;;6.012989753391594
77385;BMP280;66444;49.680;18.538;2023-12-20T06:32:26;96668.19043254126;;;5.906049754610285
77385;BMP280;66444;49.680;18.538;2023-12-20T06:37:32;96664.29586837534;;;5.758366488618776
77385;BMP280;66444;49.680;18.538;2023-12-20T06:42:37;96647.0063134434;;;5.661605832492933
77385;BMP280;66444;49.680;18.538;2023-12-20T06:47:42;96670.29667737988;;;5.641234900290146
77385;BMP280;66444;49.680;18.538;2023-12-20T06:52:46;96664.37421764093;;;5.671791263669729
77385;BMP280;66444;49.680;18.538;2023-12-20T06:57:51;96675.81993117035;;;5.712532755546272
77385;BMP280;66444;49.680;18.538;2023-12-20T07:03:02;96676.7145703293;;;5.753273874893784
77385;BMP280;66444;49.680;18.538;2023-12-20T07:08:07;96685.52311598528;;;5.794014621712267
77385;BMP280;66444;49.680;18.538;2023-12-20T07:13:12;96687.51282718794;;;5.824569937353954
77385;BMP280;66444;49.680;18.538;2023-12-20T07:18:22;96696.11950421451;;;5.916234626993537
77385;BMP280;66444;49.680;18.538;2023-12-20T07:23:27;96688.64961528691;;;5.936604301910847
77385;BMP280;66444;49.680;18.538;2023-12-20T07:28:32;96696.11950421451;;;5.916234626993537
77385;BMP280;66444;49.680;18.538;2023-12-20T07:33:37;96702.2900681081;;;5.9569738836959
77385;BMP280;66444;49.680;18.538;2023-12-20T07:38:43;96698.55487649655;;;5.967158639663831
77385;BMP280;66444;49.680;18.538;2023-12-20T07:43:49;96708.21714331754;;;5.9264194760937245
77385;BMP280;66444;49.680;18.538;2023-12-20T07:48:54;96710.85590204882;;;5.9264194760937245
77385;BMP280;66444;49.680;18.538;2023-12-20T07:53:59;96715.68621911049;;;5.906049754610285
77385;BMP280;66444;49.680;18.538;2023-12-20T07:59:05;96706.67433369752;;;5.916234626993537
77385;BMP280;66444;49.680;18.538;2023-12-20T08:04:10;96716.45770930519;;;5.911142193712294
77385;BMP280;66444;49.680;18.538;2023-12-20T08:09:15;96687.43216445007;;;5.911142193712294
77385;BMP280;66444;49.680;18.538;2023-12-20T08:14:21;96700.95011972912;;;5.895864858943969
77385;BMP280;66444;49.680;18.538;2023-12-20T08:19:26;96698.31150186184;;;5.895864858943969
77385;BMP280;66444;49.680;18.538;2023-12-20T08:24:31;96703.79009976877;;;5.844940031366423
77385;BMP280;66444;49.680;18.538;2023-12-20T08:29:43;96707.52394018866;;;5.83475499600172
77385;BMP280;66444;49.680;18.538;2023-12-20T08:34:53;96710.16230276361;;;5.83475499600172
77385;BMP280;66444;49.680;18.538;2023-12-20T08:39:58;96718.72448184567;;;5.804199750209227
77385;BMP280;66444;49.680;18.538;2023-12-20T08:45:03;96710.56014113143;;;5.732903361786157
77385;BMP280;66444;49.680;18.538;2023-12-20T08:50:10;96726.26121182488;;;5.697254739748314
77385;BMP280;66444;49.680;18.538;2023-12-20T08:55:16;96734.49681585835;;;5.681976671563461
77385;BMP280;66444;49.680;18.538;2023-12-20T09:00:21;96720.40946903944;;;5.641234900290146
77385;BMP280;66444;49.680;18.538;2023-12-20T09:05:26;96725.36237688427;;;5.656513108173385
77385;BMP280;66444;49.680;18.538;2023-12-20T09:10:32;96731.01817538113;;;5.763459096523002
77385;BMP280;66444;49.680;18.538;2023-12-20T09:15:37;96741.44354120089;;;5.727810718957334
77385;BMP280;66444;49.680;18.538;2023-12-20T09:20:42;96731.73149625785;;;5.646327642071992
77385;BMP280;66444;49.680;18.538;2023-12-20T09:25:52;96725.87852708384;;;5.590307162329554
77385;BMP280;66444;49.680;18.538;2023-12-20T09:31:07;96741.44293920537;;;5.519007351296023
77385;BMP280;66444;49.680;18.538;2023-12-20T09:36:12;96728.4489219454;;;5.468078216351569
77385;BMP280;66444;49.680;18.538;2023-12-20T09:41:17;96716.09742942173;;;5.386590389721095
77385;BMP280;66444;49.680;18.538;2023-12-20T09:46:29;96720.01501965462;;;5.325473541859537
77385;BMP280;66444;49.680;18.538;2023-12-20T09:51:39;96716.47477513921;;;5.284728510957211
77385;BMP280;66444;49.680;18.538;2023-12-20T09:56:46;96715.38282671513;;;5.294914803607389
77385;BMP280;66444;49.680;18.538;2023-12-20T10:01:51;96720.20259885938;;;5.274542195023969
77385;BMP280;66444;49.680;18.538;2023-12-20T10:07:02;96709.01863824594;;;5.305101072974503
77385;BMP280;66444;49.680;18.538;2023-12-20T10:12:07;96708.37802612594;;;5.335659741377458
77385;BMP280;66444;49.680;18.538;2023-12-20T10:17:13;96711.20278652948;;;5.284728510957211
77385;BMP280;66444;49.680;18.538;2023-12-20T10:22:18;96703.74648745917;;;5.305101072974503
77385;BMP280;66444;49.680;18.538;2023-12-20T10:27:23;96705.29032506859;;;5.315287319058553
77385;BMP280;66444;49.680;18.538;2023-12-20T10:32:28;96711.33453391255;;;5.320380433369428
77385;BMP280;66444;49.680;18.538;2023-12-20T10:37:35;96706.83417129137;;;5.325473541859537
77385;BMP280;66444;49.680;18.538;2023-12-20T10:42:40;96703.10561288704;;;5.335659741377458
77385;BMP280;66444;49.680;18.538;2023-12-20T10:47:46;96694.10440658852;;;5.345845917612314
77385;BMP280;66444;49.680;18.538;2023-12-20T10:52:54;96707.41625103718;;;5.38149735108018
77385;BMP280;66444;49.680;18.538;2023-12-20T10:58:02;96724.45830859261;;;5.4069624860771
77385;BMP280;66444;49.680;18.538;2023-12-20T11:03:13;96696.6787985184;;;5.432427475554869
77385;BMP280;66444;49.680;18.538;2023-12-20T11:08:24;96692.17727120675;;;5.437520455988124
77385;BMP280;66444;49.680;18.538;2023-12-20T11:13:40;96715.9070712472;;;5.437520455988124
77385;BMP280;66444;49.680;18.538;2023-12-20T11:18:52;96703.49561729273;;;5.4426134306006135
77385;BMP280;66444;49.680;18.538;2023-12-20T11:23:57;96699.8943837979;;;5.488449940178543
77385;BMP280;66444;49.680;18.538;2023-12-20T11:29:40;96694.87567840725;;;5.559750240156427
77385;BMP280;66444;49.680;18.538;2023-12-20T11:34:46;96679.55282510351;;;5.702347417501732
77385;BMP280;66444;49.680;18.538;2023-12-20T11:39:54;96695.37945607469;;;5.702347417501732
77385;BMP280;66444;49.680;18.538;2023-12-20T11:45:01;96673.38202574795;;;5.661605832492933
77385;BMP280;66444;49.680;18.538;2023-12-20T11:50:07;96675.04861484557;;;5.707440089434385
77385;BMP280;66444;49.680;18.538;2023-12-20T11:55:13;96677.36257022801;;;5.722718070307747
77385;BMP280;66444;49.680;18.538;2023-12-20T12:00:18;96691.64680541345;;;5.712532755546272
77385;BMP280;66444;49.680;18.538;2023-12-20T12:05:24;96696.02581825554;;;5.671791263669729
77385;BMP280;66444;49.680;18.538;2023-12-20T12:10:29;96701.30111863987;;;5.671791263669729
77385;BMP280;66444;49.680;18.538;2023-12-20T12:15:35;96689.85367042382;;;5.631049399264157
77385;BMP280;66444;49.680;18.538;2023-12-20T12:20:41;96688.31065486028;;;5.620863874955103
77385;BMP280;66444;49.680;18.538;2023-12-20T12:25:46;96684.57874242045;;;5.631049399264157
77385;BMP280;66444;49.680;18.538;2023-12-20T12:30:59;96685.47524629996;;;5.671791263669729
77385;BMP280;66444;49.680;18.538;2023-12-20T12:36:04;96682.38951804963;;;5.651420378033071
77385;BMP280;66444;49.680;18.538;2023-12-20T12:41:12;96674.80029017507;;;5.636142152687535
77385;BMP280;66444;49.680;18.538;2023-12-20T12:46:29;96672.48617173708;;;5.620863874955103
77385;BMP280;66444;49.680;18.538;2023-12-20T12:51:39;96655.76640152527;;;5.580121544888243
77385;BMP280;66444;49.680;18.538;2023-12-20T12:56:44;96652.07978190067;;;5.712532755546272
77385;BMP280;66444;49.680;18.538;2023-12-20T13:01:50;96653.82376093749;;;5.671791263669729
77385;BMP280;66444;49.680;18.538;2023-12-20T13:06:55;96640.18906548736;;;5.651420378033071
77385;BMP280;66444;49.680;18.538;2023-12-20T13:12:00;96639.41800154035;;;5.646327642071992
77385;BMP280;66444;49.680;18.538;2023-12-20T13:17:06;96626.43296513082;;;5.595399962319061
77385;BMP280;66444;49.680;18.538;2023-12-20T13:22:11;96636.21091809205;;;5.590307162329554
77385;BMP280;66444;49.680;18.538;2023-12-20T13:27:21;96647.85476532094;;;5.580121544888243
77385;BMP280;66444;49.680;18.538;2023-12-20T13:32:27;96655.76640152527;;;5.580121544888243
77385;BMP280;66444;49.680;18.538;2023-12-20T13:37:32;96662.7815772099;;;5.539378842292353
77385;BMP280;66444;49.680;18.538;2023-12-20T13:42:37;96659.49822767921;;;5.569935904163867
77385;BMP280;66444;49.680;18.538;2023-12-20T13:47:43;96643.0707164247;;;5.722718070307747
77385;BMP280;66444;49.680;18.538;2023-12-20T13:52:58;96658.69524110979;;;5.773644294869155
77385;BMP280;66444;49.680;18.538;2023-12-20T13:58:04;96663.32197710345;;;5.804199750209227
77385;BMP280;66444;49.680;18.538;2023-12-20T14:03:09;96653.01001578993;;;5.875494997762144
77385;BMP280;66444;49.680;18.538;2023-12-20T14:08:14;96656.98438442333;;;5.936604301910847
77385;BMP280;66444;49.680;18.538;2023-12-20T14:13:19;96674.11799282776;;;5.875494997762144
77385;BMP280;66444;49.680;18.538;2023-12-20T14:18:25;96659.26275188364;;;5.82966246958822
77385;BMP280;66444;49.680;18.538;2023-12-20T14:23:30;96643.75843925418;;;5.814384855423123
77385;BMP280;66444;49.680;18.538;2023-12-20T14:28:40;96654.71756665834;;;5.712532755546272
77385;BMP280;66444;49.680;18.538;2023-12-20T14:33:46;96661.04083766334;;;5.580121544888243
77385;BMP280;66444;49.680;18.538;2023-12-20T14:38:51;96657.70492503792;;;5.488449940178543
77385;BMP280;66444;49.680;18.538;2023-12-20T14:43:56;96650.76277873156;;;5.4426134306006135
77385;BMP280;66444;49.680;18.538;2023-12-20T14:49:04;96655.6543254577;;;5.335659741377458
77385;BMP280;66444;49.680;18.538;2023-12-20T14:54:10;96654.75454917528;;;5.294914803607389
77385;BMP280;66444;49.680;18.538;2023-12-20T14:59:30;96661.11937314743;;;5.284728510957211
77385;BMP280;66444;49.680;18.538;2023-12-20T15:04:35;96665.94069621271;;;5.264355855807662
77385;BMP280;66444;49.680;18.538;2023-12-20T15:09:42;96668.64197494104;;;5.386590389721095
77385;BMP280;66444;49.680;18.538;2023-12-20T15:14:47;96669.0272229704;;;5.284728510957211
77385;BMP280;66444;49.680;18.538;2023-12-20T15:19:53;96650.89705465501;;;5.269449028326198
77385;BMP280;66444;49.680;18.538;2023-12-20T15:24:59;96642.6678074922;;;5.284728510957211
77385;BMP280;66444;49.680;18.538;2023-12-20T15:30:04;96646.39676642526;;;5.274542195023969
77385;BMP280;66444;49.680;18.538;2023-12-20T15:35:11;96668.83516068298;;;5.335659741377458
77385;BMP280;66444;49.680;18.538;2023-12-20T15:40:16;96660.53784012458;;;5.437520455988124
77385;BMP280;66444;49.680;18.538;2023-12-20T15:45:21;96674.29739643002;;;5.493542856583372
77385;BMP280;66444;49.680;18.538;2023-12-20T15:50:27;96675.96683867303;;;5.539378842292353
77385;BMP280;66444;49.680;18.538;2023-12-20T15:55:32;96679.17854282817;;;5.595399962319061
77385;BMP280;66444;49.680;18.538;2023-12-20T16:00:37;96685.02706674265;;;5.651420378033071
77385;BMP280;66444;49.680;18.538;2023-12-20T16:05:43;96683.2855557974;;;5.692162056174129
77385;BMP280;66444;49.680;18.538;2023-12-20T16:10:48;96691.64680541345;;;5.712532755546272
77385;BMP280;66444;49.680;18.538;2023-12-20T16:15:54;96694.73263625178;;;5.732903361786157
77385;BMP280;66444;49.680;18.538;2023-12-20T16:20:59;96698.46545121646;;;5.722718070307747
77385;BMP280;66444;49.680;18.538;2023-12-20T16:26:05;96691.64680541345;;;5.712532755546272
77385;BMP280;66444;49.680;18.538;2023-12-20T16:31:11;96659.99314337791;;;5.712532755546272
77385;BMP280;66444;49.680;18.538;2023-12-20T16:36:17;96660.64140797053;;;5.681976671563461
77385;BMP280;66444;49.680;18.538;2023-12-20T16:41:22;96653.32787342419;;;5.52919310843572
77385;BMP280;66444;49.680;18.538;2023-12-20T16:46:28;96662.27576238582;;;5.39677644954063
77385;BMP280;66444;49.680;18.538;2023-12-20T16:51:33;96658.09642393906;;;5.386590389721095
77385;BMP280;66444;49.680;18.538;2023-12-20T16:56:39;96657.9687636332;;;5.350938996998593
77385;BMP280;66444;49.680;18.538;2023-12-20T17:01:44;96663.36919464236;;;5.386590389721095
77385;BMP280;66444;49.680;18.538;2023-12-20T17:06:49;96664.01275558157;;;5.3560320705641065
77385;BMP280;66444;49.680;18.538;2023-12-20T17:11:55;96676.74369059951;;;5.335659741377458
77385;BMP280;66444;49.680;18.538;2023-12-20T17:17:00;96687.79948564255;;;5.269449028326198
77385;BMP280;66444;49.680;18.538;2023-12-20T17:22:09;96674.55780087452;;;5.3560320705641065
77385;BMP280;66444;49.680;18.538;2023-12-20T17:27:14;96674.29913484261;;;5.284728510957211
77385;BMP280;66444;49.680;18.538;2023-12-20T17:32:20;96684.58101174417;;;5.213423810480163
77385;BMP280;66444;49.680;18.538;2023-12-20T17:37:25;96680.4017374204;;;5.20323733156547
77385;BMP280;66444;49.680;18.538;2023-12-20T17:42:30;96690.49217119937;;;5.18286430388689
77385;BMP280;66444;49.680;18.538;2023-12-20T17:47:36;96689.85233683055;;;5.213423810480163
77385;BMP280;66444;49.680;18.538;2023-12-20T17:52:42;96669.21816204261;;;5.233796698460355
77385;BMP280;66444;49.680;18.538;2023-12-20T17:57:47;96672.75577647748;;;5.274542195023969
77385;BMP280;66444;49.680;18.538;2023-12-20T18:02:52;96671.47133492336;;;5.335659741377458
77385;BMP280;66444;49.680;18.538;2023-12-20T18:07:58;96675.00794563728;;;5.376404306618497
77385;BMP280;66444;49.680;18.538;2023-12-20T18:13:03;96692.62736733997;;;5.457892319513485
77385;BMP280;66444;49.680;18.538;2023-12-20T18:18:14;96690.89022841661;;;5.498635767167434
77385;BMP280;66444;49.680;18.538;2023-12-20T18:23:19;96693.33245073221;;;5.549564552865922
77385;BMP280;66444;49.680;18.538;2023-12-20T18:28:30;96710.953478468;;;5.631049399264157
77385;BMP280;66444;49.680;18.538;2023-12-20T18:33:35;96703.2928039782;;;5.702347417501732
77385;BMP280;66444;49.680;18.538;2023-12-20T18:38:46;96701.99949410028;;;5.763459096523002
77385;BMP280;66444;49.680;18.538;2023-12-20T18:43:51;96707.27559635327;;;5.763459096523002
77385;BMP280;66444;49.680;18.538;2023-12-20T18:48:57;96706.18058857873;;;5.773644294869155
77385;BMP280;66444;49.680;18.538;2023-12-20T18:54:03;96694.20902143198;;;5.7991071888711305
77385;BMP280;66444;49.680;18.538;2023-12-20T18:59:14;96703.06139816626;;;5.9620662645902485
77385;BMP280;66444;49.680;18.538;2023-12-20T19:04:19;96700.3386245883;;;6.048635849216953
77385;BMP280;66444;49.680;18.538;2023-12-20T19:09:25;96706.14673966046;;;5.982435729959979
77385;BMP280;66444;49.680;18.538;2023-12-20T19:14:35;96702.04595592403;;;5.8856799399945885
77385;BMP280;66444;49.680;18.538;2023-12-20T19:19:41;96706.42850289022;;;5.844940031366423
77385;BMP280;66444;49.680;18.538;2023-12-20T19:24:51;96693.83647132498;;;5.692162056174129
77385;BMP280;66444;49.680;18.538;2023-12-20T19:29:57;96686.76764785759;;;5.610678327362985
77385;BMP280;66444;49.680;18.538;2023-12-20T19:35:04;96675.64413732797;;;5.554657399421558
77385;BMP280;66444;49.680;18.538;2023-12-20T19:40:12;96681.24096005861;;;5.539378842292353
77385;BMP280;66444;49.680;18.538;2023-12-20T19:45:17;96671.3380490189;;;5.508821570873261
77385;BMP280;66444;49.680;18.538;2023-12-20T19:50:23;96683.4288599447;;;5.519007351296023
77385;BMP280;66444;49.680;18.538;2023-12-20T19:55:28;96675.44675462518;;;5.605585544835776
77385;BMP280;66444;49.680;18.538;2023-12-20T20:00:34;96680.44787397036;;;5.743088629981503
77385;BMP280;66444;49.680;18.538;2023-12-20T20:05:39;96678.50211042057;;;5.83475499600172
77385;BMP280;66444;49.680;18.538;2023-12-20T20:10:50;96677.20264542603;;;5.895864858943969
77385;BMP280;66444;49.680;18.538;2023-12-20T20:15:56;96678.77946652795;;;6.028266686527059
77385;BMP280;66444;49.680;18.538;2023-12-20T20:21:04;96670.20938708149;;;6.058820395637303
77385;BMP280;66444;49.680;18.538;2023-12-20T20:26:10;96647.31853968464;;;5.977343372348696
77385;BMP280;66444;49.680;18.538;2023-12-20T20:31:15;96647.08144397048;;;5.906049754610285
77385;BMP280;66444;49.680;18.538;2023-12-20T20:36:26;96612.98880285435;;;5.85512504344806
77385;BMP280;66444;49.680;18.538;2023-12-20T20:41:31;96626.38756246303;;;5.804199750209227
77385;BMP280;66444;49.680;18.538;2023-12-20T20:46:37;96630.32742439542;;;5.743088629981503
77385;BMP280;66444;49.680;18.538;2023-12-20T20:51:42;96655.48870372884;;;5.717625415837392
77385;BMP280;66444;49.680;18.538;2023-12-20T20:56:47;96631.42348129717;;;5.732903361786157
77385;BMP280;66444;49.680;18.538;2023-12-20T21:02:01;96636.0490265477;;;5.763459096523002
77385;BMP280;66444;49.680;18.538;2023-12-20T21:07:10;96629.47082599587;;;5.824569937353954
77385;BMP280;66444;49.680;18.538;2023-12-20T21:12:23;96620.90390321553;;;5.85512504344806
77385;BMP280;66444;49.680;18.538;2023-12-20T21:17:32;96607.71208129286;;;5.85512504344806
77385;BMP280;66444;49.680;18.538;2023-12-20T21:22:40;96602.64425881431;;;5.804199750209227
77385;BMP280;66444;49.680;18.538;2023-12-20T21:27:48;96608.36493201865;;;5.824569937353954
77385;BMP280;66444;49.680;18.538;2023-12-20T21:32:57;96628.81902519945;;;5.85512504344806
77385;BMP280;66444;49.680;18.538;2023-12-20T21:38:10;96632.79133472688;;;5.916234626993537
77385;BMP280;66444;49.680;18.538;2023-12-20T21:43:18;96638.18676112;;;5.9518814969807865
77385;BMP280;66444;49.680;18.538;2023-12-20T21:48:27;96653.24870847532;;;5.946789104444906
77385;BMP280;66444;49.680;18.538;2023-12-20T21:53:35;96632.58251446865;;;5.967158639663831
77385;BMP280;66444;49.680;18.538;2023-12-20T21:58:43;96616.30580888342;;;5.946789104444906
77385;BMP280;66444;49.680;18.538;2023-12-20T22:03:52;96606.63705425806;;;5.987528081750497
77385;BMP280;66444;49.680;18.538;2023-12-20T22:09:00;96605.09609840777;;;5.977343372348696
77385;BMP280;66444;49.680;18.538;2023-12-20T22:14:19;96596.08135867452;;;5.987528081750497
77385;BMP280;66444;49.680;18.538;2023-12-20T22:19:27;96584.86944536696;;;6.018082070257515